Time;durP1;ratioP1;P1;durP2;ratioP2;P2;SDS_P1;SDS_P2;PMS_P1;PMS_P2;Temp;Humidity;BMP_temperature;BMP_pressure;BME280_temperature;BME280_humidity;BME280_pressure;Samples;Min_cycle;Max_cycle;Signal;HPM_P1;HPM_P2
2023/08/30 00:00:47;;;;;;;12.40;11.18;;;13.40;99.90;;;;;;4932020;29;20032;-74
2023/08/30 00:03:13;;;;;;;18.40;11.50;;;13.40;99.90;;;;;;4949156;29;20039;-74
2023/08/30 00:05:40;;;;;;;11.10;9.95;;;13.40;99.90;;;;;;4948172;29;20067;-75
2023/08/30 00:08:05;;;;;;;11.27;10.18;;;13.40;99.90;;;;;;4949127;29;20035;-76
2023/08/30 00:10:31;;;;;;;9.55;8.55;;;13.40;99.90;;;;;;4948624;29;20040;-74
2023/08/30 00:12:57;;;;;;;12.13;9.85;;;13.40;99.90;;;;;;4948606;29;20087;-74
2023/08/30 00:15:23;;;;;;;13.00;9.43;;;13.40;99.90;;;;;;4948011;29;20031;-73
2023/08/30 00:17:51;;;;;;;11.10;9.38;;;13.40;99.90;;;;;;4948968;29;20035;-74
2023/08/30 00:20:17;;;;;;;10.05;8.93;;;13.40;99.90;;;;;;4948302;29;20039;-76
2023/08/30 00:22:43;;;;;;;9.63;8.57;;;13.40;99.90;;;;;;4948838;29;20035;-75
2023/08/30 00:25:09;;;;;;;11.40;9.75;;;13.30;99.90;;;;;;4931394;29;20271;-76
2023/08/30 00:27:34;;;;;;;10.10;8.60;;;13.30;99.90;;;;;;4947853;29;20223;-73
2023/08/30 00:30:00;;;;;;;9.35;8.35;;;13.30;99.90;;;;;;4948598;29;20214;-75
2023/08/30 06:49:35;;;;;;;9.70;8.18;;;15.00;99.90;;;;;;5829797;23;20023;-75
2023/08/30 06:52:03;;;;;;;9.43;7.53;;;14.90;99.90;;;;;;4918939;29;20032;-74
2023/08/30 06:54:32;;;;;;;8.67;7.40;;;15.00;99.90;;;;;;4939017;29;20032;-74
2023/08/30 06:56:59;;;;;;;8.55;6.28;;;15.10;99.90;;;;;;4940721;29;20445;-74
2023/08/30 06:59:26;;;;;;;8.27;7.38;;;15.10;99.90;;;;;;4941597;29;20343;-75
2023/08/30 07:01:51;;;;;;;9.15;7.40;;;15.00;99.90;;;;;;4928483;29;20209;-75
2023/08/30 07:04:17;;;;;;;9.30;7.30;;;15.00;99.90;;;;;;4945806;29;20032;-75
2023/08/30 07:06:43;;;;;;;10.40;7.25;;;15.10;99.90;;;;;;4939828;29;20036;-74
2023/08/30 07:09:09;;;;;;;10.40;7.85;;;15.10;99.90;;;;;;4941496;29;20016;-75
2023/08/30 07:11:34;;;;;;;13.45;7.75;;;15.10;99.90;;;;;;4926631;29;20032;-75
2023/08/30 07:14:00;;;;;;;13.30;7.45;;;15.10;99.90;;;;;;4926170;29;20571;-75
2023/08/30 07:16:26;;;;;;;12.35;8.65;;;15.10;99.90;;;;;;4920382;29;20039;-73
2023/08/30 07:18:52;;;;;;;11.93;8.50;;;15.10;99.90;;;;;;4926190;29;20056;-74
2023/08/30 07:21:17;;;;;;;10.95;8.43;;;15.00;99.90;;;;;;4926534;29;20327;-75
2023/08/30 07:23:43;;;;;;;11.52;8.07;;;15.10;99.90;;;;;;4930947;29;20039;-75
2023/08/30 07:26:09;;;;;;;9.20;7.28;;;15.10;99.90;;;;;;4928232;29;20298;-75
2023/08/30 07:28:35;;;;;;;9.15;7.35;;;15.10;99.90;;;;;;4926150;29;20031;-75
2023/08/30 07:31:04;;;;;;;9.75;6.43;;;15.20;99.90;;;;;;4908570;29;20378;-74
2023/08/30 07:33:30;;;;;;;8.20;6.40;;;15.40;99.90;;;;;;4926285;29;20064;-73
2023/08/30 07:35:56;;;;;;;7.35;5.72;;;15.50;99.90;;;;;;4925985;29;20035;-74
2023/08/30 07:38:21;;;;;;;8.65;6.68;;;15.50;99.90;;;;;;4926062;29;20040;-74
2023/08/30 07:40:47;;;;;;;8.73;6.97;;;15.60;99.90;;;;;;4925879;29;20056;-74
2023/08/30 07:43:13;;;;;;;6.90;6.20;;;15.50;99.90;;;;;;4926008;29;20052;-74
2023/08/30 07:45:39;;;;;;;7.32;6.05;;;15.50;99.90;;;;;;4925839;29;20028;-75
2023/08/30 07:48:04;;;;;;;6.95;5.88;;;15.50;99.90;;;;;;4925991;29;20043;-75
2023/08/30 07:50:30;;;;;;;7.68;6.13;;;15.50;99.90;;;;;;4925910;29;20048;-75
2023/08/30 07:52:56;;;;;;;8.18;6.22;;;15.50;99.90;;;;;;4908722;29;20107;-74
2023/08/30 07:55:21;;;;;;;10.98;5.75;;;15.50;99.90;;;;;;4909137;29;20084;-73
2023/08/30 07:57:47;;;;;;;7.10;5.53;;;15.50;99.90;;;;;;4921028;29;20024;-74
2023/08/30 08:00:13;;;;;;;7.53;6.13;;;15.50;99.90;;;;;;4907389;29;20024;-74
2023/08/30 08:02:40;;;;;;;6.85;6.15;;;15.60;99.90;;;;;;4907539;29;20067;-75
2023/08/30 08:05:06;;;;;;;8.88;6.80;;;15.70;99.90;;;;;;4906517;29;20353;-75
2023/08/30 08:07:32;;;;;;;6.10;5.45;;;15.90;99.90;;;;;;4906972;29;20033;-74
2023/08/30 08:09:58;;;;;;;7.70;6.28;;;16.00;99.90;;;;;;4906608;29;20048;-74
2023/08/30 08:12:23;;;;;;;7.07;5.53;;;16.10;99.90;;;;;;4890531;29;20045;-75
2023/08/30 08:14:49;;;;;;;7.50;5.80;;;16.20;99.90;;;;;;4889726;29;20145;-75
2023/08/30 08:17:15;;;;;;;6.30;5.22;;;16.40;99.90;;;;;;4907225;29;20087;-76
2023/08/30 08:19:42;;;;;;;6.13;4.90;;;16.60;99.90;;;;;;4910917;29;20028;-74
2023/08/30 08:22:08;;;;;;;6.33;4.80;;;16.90;99.90;;;;;;4910725;29;20033;-74
2023/08/30 08:24:34;;;;;;;7.68;5.05;;;17.00;99.90;;;;;;4917258;29;20040;-74
2023/08/30 08:27:01;;;;;;;6.97;4.38;;;17.20;99.90;;;;;;4929143;29;20059;-74
2023/08/30 08:29:29;;;;;;;7.18;4.60;;;17.30;99.90;;;;;;4929143;29;20107;-74
2023/08/30 08:31:55;;;;;;;6.00;4.80;;;17.40;99.90;;;;;;4929057;29;20036;-75
2023/08/30 08:34:21;;;;;;;6.28;3.67;;;17.40;99.90;;;;;;4929165;29;20056;-74
2023/08/30 08:36:47;;;;;;;5.55;3.05;;;17.60;99.90;;;;;;4924889;29;20035;-74
2023/08/30 08:39:14;;;;;;;4.05;3.30;;;17.50;99.90;;;;;;4914486;29;20592;-75
2023/08/30 08:41:44;;;;;;;4.57;3.25;;;17.50;99.90;;;;;;4927692;29;20027;-76
2023/08/30 08:44:11;;;;;;;5.40;3.33;;;17.60;99.90;;;;;;4928111;29;20047;-75
2023/08/30 08:46:39;;;;;;;5.07;3.20;;;17.80;99.90;;;;;;4928719;29;20043;-75
2023/08/30 08:49:15;;;;;;;3.78;2.90;;;17.90;99.90;;;;;;4928411;29;20031;-75
2023/08/30 08:51:43;;;;;;;6.47;3.50;;;18.10;99.90;;;;;;4928766;29;20286;-74
2023/08/30 08:54:09;;;;;;;5.97;3.28;;;18.30;99.90;;;;;;4928403;29;20044;-74
2023/08/30 08:56:35;;;;;;;4.88;2.88;;;18.60;99.90;;;;;;4928843;29;20055;-74
2023/08/30 08:59:02;;;;;;;5.53;3.33;;;18.70;99.90;;;;;;4928414;29;20055;-76
2023/08/30 09:01:28;;;;;;;6.53;3.22;;;18.60;99.90;;;;;;4928825;29;20095;-74
2023/08/30 09:03:54;;;;;;;5.05;2.30;;;18.60;99.90;;;;;;4928219;29;20119;-75
2023/08/30 09:06:23;;;;;;;4.82;1.92;;;18.90;99.90;;;;;;4928566;29;20048;-74
2023/08/30 09:08:49;;;;;;;4.00;2.20;;;19.00;99.90;;;;;;4928515;29;20028;-75
2023/08/30 09:11:14;;;;;;;3.00;1.85;;;19.00;99.90;;;;;;4928154;29;20043;-74
2023/08/30 09:13:43;;;;;;;2.90;1.80;;;19.00;99.90;;;;;;4911663;29;20040;-74
2023/08/30 09:16:15;;;;;;;4.50;2.20;;;19.20;99.90;;;;;;4911232;29;20020;-75
2023/08/30 09:18:42;;;;;;;3.70;2.30;;;19.20;99.90;;;;;;4928319;29;20310;-74
2023/08/30 09:21:09;;;;;;;4.45;2.45;;;19.10;99.90;;;;;;4911024;29;20032;-75
2023/08/30 09:23:35;;;;;;;3.53;1.73;;;19.00;99.90;;;;;;4928190;29;20044;-75
2023/08/30 09:26:02;;;;;;;6.40;3.03;;;18.90;99.90;;;;;;4911180;29;20028;-74
2023/08/30 09:28:28;;;;;;;2.63;1.73;;;18.90;99.90;;;;;;4927564;29;20048;-74
2023/08/30 09:30:54;;;;;;;3.10;2.10;;;19.10;99.90;;;;;;4927043;29;20107;-75
2023/08/30 09:33:29;;;;;;;3.58;2.25;;;19.30;99.90;;;;;;4928062;29;20051;-77
2023/08/30 09:35:55;;;;;;;4.93;1.70;;;19.40;99.90;;;;;;4927672;29;20230;-78
2023/08/30 09:38:21;;;;;;;4.28;2.35;;;19.50;99.90;;;;;;4912597;29;20041;-78
2023/08/30 09:40:47;;;;;;;3.17;1.70;;;19.40;99.90;;;;;;4909007;29;20034;-76
2023/08/30 09:43:13;;;;;;;2.50;1.60;;;19.40;99.90;;;;;;4908861;29;20104;-76
2023/08/30 09:45:41;;;;;;;4.25;2.10;;;19.80;99.90;;;;;;4926093;29;20028;-76
2023/08/30 09:48:33;;;;;;;2.97;1.70;;;20.10;98.70;;;;;;4927658;29;20309;-76
2023/08/30 09:51:05;;;;;;;2.58;1.35;;;20.00;97.40;;;;;;4926764;29;20080;-76
2023/08/30 09:54:03;;;;;;;2.53;1.60;;;20.00;97.70;;;;;;4927829;29;20032;-76
2023/08/30 09:57:07;;;;;;;2.40;1.33;;;20.10;97.30;;;;;;4927785;29;20084;-76
2023/08/30 10:00:05;;;;;;;3.13;1.30;;;20.40;97.20;;;;;;4907299;29;20040;-75
2023/08/30 10:02:34;;;;;;;3.78;1.63;;;20.60;97.20;;;;;;4909021;29;20111;-73
2023/08/30 10:05:13;;;;;;;3.05;1.77;;;20.90;97.40;;;;;;4908205;29;20100;-76
2023/08/30 10:07:58;;;;;;;4.45;1.70;;;21.10;97.10;;;;;;4908423;29;20045;-76
2023/08/30 10:10:35;;;;;;;4.07;1.52;;;21.20;96.50;;;;;;4908587;29;20307;-76
2023/08/30 10:13:24;;;;;;;4.40;1.40;;;21.10;95.60;;;;;;4907834;29;20040;-75
2023/08/30 10:16:12;;;;;;;3.80;1.48;;;21.00;95.90;;;;;;4908199;29;20079;-76
2023/08/30 10:18:44;;;;;;;2.08;1.38;;;21.30;95.40;;;;;;4891868;29;20040;-76
2023/08/30 10:21:12;;;;;;;8.90;1.83;;;21.40;95.30;;;;;;4906866;29;20234;-77
2023/08/30 10:23:49;;;;;;;;;;;21.60;94.70;;;;;;4909035;29;20114;-76
2023/08/30 10:26:39;;;;;;;2.00;1.10;;;21.80;94.50;;;;;;4910549;29;19913;-75
2023/08/30 10:29:15;;;;;;;2.63;1.30;;;22.00;93.50;;;;;;4920587;29;20047;-75
2023/08/30 10:32:03;;;;;;;2.17;1.20;;;22.10;92.80;;;;;;4909332;29;20028;-76
2023/08/30 10:34:45;;;;;;;2.17;1.27;;;22.20;92.30;;;;;;4929790;29;20055;-75
2023/08/30 10:37:14;;;;;;;2.08;1.08;;;22.20;93.10;;;;;;4907225;29;20067;-76
2023/08/30 10:39:41;;;;;;;1.92;1.00;;;22.10;91.50;;;;;;4908123;29;20096;-78
2023/08/30 10:42:19;;;;;;;1.80;1.08;;;22.30;91.40;;;;;;4918121;29;20079;-76
2023/08/30 10:44:57;;;;;;;2.58;0.95;;;22.70;91.10;;;;;;4916658;29;20036;-76
2023/08/30 10:47:30;;;;;;;3.42;0.93;;;22.90;85.80;;;;;;4905333;29;20156;-76
2023/08/30 10:50:00;;;;;;;1.70;0.80;;;23.00;84.00;;;;;;4907183;29;20126;-76
2023/08/30 10:52:28;;;;;;;1.85;0.70;;;22.90;83.50;;;;;;4908033;29;20028;-75
2023/08/30 10:55:20;;;;;;;1.87;0.87;;;22.50;85.00;;;;;;4907653;29;20271;-75
2023/08/30 10:57:45;;;;;;;2.10;0.77;;;22.70;84.50;;;;;;4912115;29;20028;-75
2023/08/30 11:00:18;;;;;;;1.65;0.70;;;22.90;85.90;;;;;;4909233;29;20091;-77
2023/08/30 11:02:46;;;;;;;1.83;0.55;;;22.90;83.60;;;;;;4926861;29;20055;-76
2023/08/30 11:05:12;;;;;;;2.60;0.93;;;23.40;81.10;;;;;;4926411;29;20259;-75
2023/08/30 11:07:38;;;;;;;1.70;0.90;;;23.90;82.90;;;;;;4926826;29;20079;-78
2023/08/30 11:10:08;;;;;;;1.92;0.95;;;24.00;80.20;;;;;;4893953;29;20028;-76
2023/08/30 11:12:35;;;;;;;1.98;1.08;;;24.40;80.10;;;;;;4926494;29;20039;-76
2023/08/30 11:15:06;;;;;;;3.05;0.98;;;24.30;79.00;;;;;;4893806;29;20048;-76
2023/08/30 11:17:32;;;;;;;3.33;0.95;;;24.50;79.10;;;;;;4909658;29;20040;-75
2023/08/30 11:20:19;;;;;;;7.03;1.00;;;24.00;78.50;;;;;;4909163;29;20039;-77
2023/08/30 11:22:46;;;;;;;3.27;1.03;;;24.00;77.70;;;;;;4925685;29;20413;-75
2023/08/30 11:25:16;;;;;;;1.90;0.95;;;24.70;76.80;;;;;;4925588;29;20051;-76
2023/08/30 11:27:45;;;;;;;2.97;0.77;;;25.20;74.50;;;;;;4909425;29;20035;-76
2023/08/30 11:30:13;;;;;;;2.08;0.73;;;25.90;73.00;;;;;;4905134;29;20048;-77
2023/08/30 11:32:42;;;;;;;2.13;0.90;;;26.70;70.10;;;;;;4925830;29;20047;-75
2023/08/30 11:35:18;;;;;;;2.22;0.80;;;27.30;68.90;;;;;;4925749;29;20209;-77
2023/08/30 11:37:44;;;;;;;2.55;0.90;;;28.20;68.70;;;;;;4890396;29;20031;-76
2023/08/30 11:40:22;;;;;;;2.17;1.38;;;27.60;68.90;;;;;;4904732;29;20274;-79
2023/08/30 11:43:21;;;;;;;3.38;1.10;;;27.20;66.70;;;;;;4923217;29;20377;-77
2023/08/30 11:45:46;;;;;;;3.88;1.45;;;26.20;69.60;;;;;;4859863;29;20052;-78
2023/08/30 11:48:12;;;;;;;2.83;1.50;;;24.80;72.40;;;;;;4906782;29;20100;-76
2023/08/30 11:50:45;;;;;;;3.33;1.90;;;24.00;75.80;;;;;;4889457;29;20210;-76
2023/08/30 11:53:18;;;;;;;3.28;1.60;;;22.90;79.70;;;;;;4908171;29;20378;-78
2023/08/30 11:56:37;;;;;;;3.92;1.80;;;22.10;83.10;;;;;;4911240;29;20031;-76
2023/08/30 11:59:04;;;;;;;4.53;1.92;;;21.20;86.40;;;;;;4800166;29;20083;-74
2023/08/30 12:01:32;;;;;;;4.47;1.73;;;20.70;88.50;;;;;;4834540;29;20338;-75
2023/08/30 12:04:18;;;;;;;6.37;2.00;;;20.30;89.30;;;;;;4834771;29;20113;-75
2023/08/30 12:07:00;;;;;;;4.25;2.03;;;20.10;90.70;;;;;;4829117;29;20391;-77
2023/08/30 12:09:32;;;;;;;3.15;1.63;;;19.80;97.10;;;;;;4834921;29;20065;-76
2023/08/30 12:12:10;;;;;;;3.97;1.85;;;18.90;97.00;;;;;;4804187;29;20042;-74
2023/08/30 12:14:36;;;;;;;3.65;2.30;;;18.00;98.10;;;;;;4834685;29;20340;-75
2023/08/30 12:17:03;;;;;;;3.05;2.10;;;17.50;99.90;;;;;;4833877;29;20038;-74
2023/08/30 12:19:29;;;;;;;4.07;2.58;;;17.10;99.90;;;;;;4834797;29;20284;-75
2023/08/30 12:22:07;;;;;;;3.80;2.45;;;16.90;99.90;;;;;;4834509;29;20081;-78
2023/08/30 12:24:59;;;;;;;3.88;2.33;;;16.90;99.90;;;;;;4903676;29;20035;-77
2023/08/30 12:27:25;;;;;;;4.10;2.70;;;16.90;99.90;;;;;;4929570;29;20094;-76
2023/08/30 12:29:53;;;;;;;3.78;2.35;;;17.00;99.90;;;;;;4929701;29;20036;-76
2023/08/30 12:32:25;;;;;;;;;;;17.20;99.90;;;;;;4928463;29;20084;-77
2023/08/30 12:34:51;;;;;;;3.35;2.40;;;17.30;99.90;;;;;;4893817;29;19934;-76
2023/08/30 12:37:16;;;;;;;4.60;2.78;;;17.50;99.90;;;;;;4918731;29;20391;-77
2023/08/30 12:39:42;;;;;;;3.33;1.98;;;17.70;99.90;;;;;;4929917;29;20226;-76
2023/08/30 12:42:08;;;;;;;4.35;2.50;;;18.10;99.90;;;;;;4928985;29;20325;-76
2023/08/30 12:44:33;;;;;;;3.88;2.10;;;18.30;99.90;;;;;;4928753;28;20044;-75
2023/08/30 12:46:59;;;;;;;2.55;1.50;;;18.60;99.90;;;;;;4928555;29;20042;-74
2023/08/30 12:49:25;;;;;;;3.53;1.45;;;18.90;97.90;;;;;;4928920;29;20024;-74
2023/08/30 12:51:51;;;;;;;3.00;1.60;;;19.20;99.10;;;;;;4928588;29;20115;-75
2023/08/30 12:54:19;;;;;;;2.88;1.65;;;19.50;99.50;;;;;;4929099;29;20040;-75
2023/08/30 12:56:45;;;;;;;2.10;1.20;;;19.90;97.40;;;;;;4912096;29;20068;-75
2023/08/30 12:59:11;;;;;;;2.38;1.40;;;20.30;97.10;;;;;;4928529;29;20099;-75
2023/08/30 13:01:46;;;;;;;2.03;1.27;;;20.30;95.90;;;;;;4929257;29;20032;-75
2023/08/30 13:04:11;;;;;;;4.15;1.20;;;20.30;95.40;;;;;;4911164;29;20059;-75
2023/08/30 13:06:37;;;;;;;2.00;1.10;;;20.40;94.00;;;;;;4928771;29;20287;-76
2023/08/30 13:09:03;;;;;;;1.70;1.02;;;20.80;92.60;;;;;;4928273;29;20056;-76
2023/08/30 13:11:32;;;;;;;2.13;1.10;;;21.00;92.50;;;;;;4911845;29;20043;-74
2023/08/30 13:13:58;;;;;;;1.85;1.10;;;21.30;93.30;;;;;;4927663;29;20329;-75
2023/08/30 13:16:24;;;;;;;1.77;0.90;;;21.50;92.40;;;;;;4928534;29;20067;-76
2023/08/30 13:18:50;;;;;;;2.08;1.30;;;21.70;91.80;;;;;;4911623;29;20040;-75
2023/08/30 13:21:16;;;;;;;3.42;1.30;;;22.00;91.10;;;;;;4928177;29;20205;-75
2023/08/30 13:23:41;;;;;;;1.95;1.17;;;22.30;90.60;;;;;;4928481;29;20047;-75
2023/08/30 13:26:07;;;;;;;3.90;1.40;;;22.60;90.80;;;;;;4911202;29;20028;-75
2023/08/30 13:28:34;;;;;;;2.45;1.15;;;22.70;89.40;;;;;;4928566;29;20032;-75
2023/08/30 13:31:00;;;;;;;2.72;1.00;;;23.00;89.80;;;;;;4927926;29;20084;-75
2023/08/30 13:33:27;;;;;;;2.05;1.08;;;23.40;88.40;;;;;;4895892;29;20032;-75
2023/08/30 13:35:53;;;;;;;1.98;1.08;;;23.70;89.10;;;;;;4895481;29;20024;-76
2023/08/30 13:38:19;;;;;;;2.10;1.00;;;24.20;85.50;;;;;;4928022;29;20048;-76
2023/08/30 13:40:45;;;;;;;2.45;1.40;;;24.50;85.10;;;;;;4908196;29;20048;-75
2023/08/30 13:43:17;;;;;;;2.42;1.25;;;25.00;83.30;;;;;;4927942;29;20035;-76
2023/08/30 13:45:47;;;;;;;3.42;1.08;;;25.50;83.90;;;;;;4898413;29;20044;-78
2023/08/30 13:48:13;;;;;;;3.08;1.00;;;26.30;82.20;;;;;;4892037;29;20149;-76
2023/08/30 13:50:42;;;;;;;2.42;0.98;;;27.40;78.90;;;;;;4908863;29;20048;-75
2023/08/30 13:53:14;;;;;;;1.77;0.75;;;28.40;76.70;;;;;;4908302;29;20044;-76
2023/08/30 13:55:40;;;;;;;1.95;0.93;;;28.10;73.30;;;;;;4892855;29;20041;-76
2023/08/30 13:58:06;;;;;;;1.85;0.93;;;28.40;73.90;;;;;;4908778;29;20132;-77
2023/08/30 14:00:34;;;;;;;1.67;0.70;;;30.10;72.70;;;;;;4909006;29;20041;-76
2023/08/30 14:02:59;;;;;;;1.60;0.90;;;29.60;68.80;;;;;;4908402;29;20365;-76
2023/08/30 14:05:25;;;;;;;1.75;0.70;;;29.20;68.20;;;;;;4909081;29;20033;-76
2023/08/30 14:07:51;;;;;;;2.30;0.90;;;29.80;68.50;;;;;;4892505;29;20277;-77
2023/08/30 14:10:18;;;;;;;1.65;0.70;;;29.80;66.10;;;;;;4891642;29;20056;-76
2023/08/30 14:12:44;;;;;;;1.98;0.70;;;28.40;69.30;;;;;;4913860;29;20044;-74
2023/08/30 14:15:10;;;;;;;1.88;0.90;;;27.80;70.50;;;;;;4913422;29;20032;-74
2023/08/30 14:17:35;;;;;;;3.05;1.08;;;26.80;72.20;;;;;;4916633;29;20062;-75
2023/08/30 14:20:01;;;;;;;2.20;0.98;;;25.90;74.20;;;;;;4892395;29;20032;-76
2023/08/30 14:22:30;;;;;;;1.95;1.00;;;25.30;75.70;;;;;;4909181;29;20064;-75
2023/08/30 14:25:02;;;;;;;1.52;0.80;;;24.80;76.40;;;;;;4908699;29;20318;-77
2023/08/30 14:27:28;;;;;;;2.35;1.00;;;24.70;77.20;;;;;;4891801;29;20029;-76
2023/08/30 14:30:00;;;;;;;1.77;0.95;;;24.70;76.00;;;;;;4908044;29;20040;-79
2023/08/30 14:32:46;;;;;;;2.22;0.95;;;24.70;76.80;;;;;;4912175;29;20088;-76
2023/08/30 14:35:15;;;;;;;2.38;1.25;;;24.20;78.60;;;;;;4910141;29;20577;-77
2023/08/30 14:37:44;;;;;;;3.55;1.10;;;23.70;80.50;;;;;;4923139;29;20087;-78
2023/08/30 14:40:09;;;;;;;2.00;1.05;;;23.10;81.50;;;;;;4907981;29;20108;-76
2023/08/30 14:42:41;;;;;;;3.63;1.30;;;22.70;82.40;;;;;;4921413;29;20035;-75
2023/08/30 14:45:08;;;;;;;3.90;1.30;;;22.20;85.10;;;;;;4904023;29;20039;-78
2023/08/30 14:47:34;;;;;;;3.75;1.23;;;21.80;86.90;;;;;;4927305;29;20032;-76
2023/08/30 14:50:06;;;;;;;2.08;1.02;;;21.50;87.50;;;;;;4909431;29;20048;-74
2023/08/30 14:52:35;;;;;;;2.47;1.10;;;21.40;89.10;;;;;;4927156;29;20315;-75
2023/08/30 14:55:00;;;;;;;3.15;1.50;;;21.20;90.80;;;;;;4926703;29;20104;-75
2023/08/30 14:57:26;;;;;;;2.83;1.40;;;21.20;90.10;;;;;;4926913;29;20333;-75
2023/08/30 14:59:52;;;;;;;2.33;1.33;;;21.20;90.90;;;;;;4910092;29;20028;-75
2023/08/30 15:02:18;;;;;;;2.92;1.40;;;21.10;91.40;;;;;;4927157;29;20044;-75
2023/08/30 15:04:47;;;;;;;2.30;1.55;;;21.20;92.70;;;;;;4909722;29;20105;-74
2023/08/30 15:07:25;;;;;;;2.92;1.70;;;21.20;93.70;;;;;;4926465;29;20042;-74
2023/08/30 15:09:51;;;;;;;2.83;1.55;;;21.20;94.30;;;;;;4909828;29;20043;-75
2023/08/30 15:12:17;;;;;;;2.47;1.30;;;21.40;93.10;;;;;;4925986;29;20031;-76
2023/08/30 15:14:42;;;;;;;2.55;1.45;;;21.60;93.20;;;;;;4926429;29;20203;-75
2023/08/30 15:17:20;;;;;;;3.08;1.50;;;21.80;93.00;;;;;;4926573;29;20028;-76
2023/08/30 15:19:46;;;;;;;;;;;22.00;91.80;;;;;;4910097;29;20043;-75
2023/08/30 15:22:11;;;;;;;3.00;1.30;;;22.30;92.00;;;;;;4940752;29;19981;-75
2023/08/30 15:24:52;;;;;;;4.03;1.40;;;22.40;90.30;;;;;;4926831;29;20043;-75
2023/08/30 15:27:19;;;;;;;2.50;1.27;;;22.40;88.20;;;;;;4908727;29;20123;-76
2023/08/30 15:29:50;;;;;;;2.30;1.23;;;22.70;86.20;;;;;;4926309;29;20306;-76
2023/08/30 15:32:25;;;;;;;2.58;1.10;;;22.80;83.90;;;;;;4925452;29;20039;-76
2023/08/30 15:34:51;;;;;;;2.45;1.40;;;22.50;83.70;;;;;;4926614;29;20071;-75
2023/08/30 15:37:17;;;;;;;2.60;1.20;;;22.60;85.40;;;;;;4925921;29;20036;-76
2023/08/30 15:39:47;;;;;;;2.67;1.00;;;23.00;84.00;;;;;;4926464;29;20107;-77
2023/08/30 15:42:13;;;;;;;2.45;1.00;;;23.90;82.70;;;;;;4926145;29;20031;-76
2023/08/30 15:44:39;;;;;;;1.80;0.95;;;24.90;81.50;;;;;;4925283;29;20222;-77
2023/08/30 15:47:05;;;;;;;1.58;0.77;;;25.30;76.30;;;;;;4926105;29;20024;-76
2023/08/30 15:49:31;;;;;;;2.20;1.00;;;25.30;77.30;;;;;;4926358;29;20242;-75
2023/08/30 15:51:59;;;;;;;2.47;1.30;;;25.30;75.90;;;;;;4909065;29;20056;-77
2023/08/30 15:54:25;;;;;;;3.63;1.25;;;24.80;77.30;;;;;;4926487;29;20035;-75
2023/08/30 15:56:51;;;;;;;1.73;0.80;;;24.70;76.30;;;;;;4925943;29;20032;-75
2023/08/30 15:59:23;;;;;;;3.53;1.40;;;24.70;76.40;;;;;;4908574;29;20044;-77
2023/08/30 16:01:48;;;;;;;4.63;1.70;;;25.60;76.30;;;;;;4926046;29;20051;-75
2023/08/30 16:04:14;;;;;;;2.75;1.20;;;26.60;75.10;;;;;;4908993;29;20036;-75
2023/08/30 16:06:44;;;;;;;2.75;1.10;;;26.30;75.00;;;;;;4925977;29;20076;-76
2023/08/30 16:09:13;;;;;;;1.58;1.00;;;25.80;76.00;;;;;;4926076;29;20043;-75
2023/08/30 16:11:38;;;;;;;4.15;1.10;;;26.00;76.50;;;;;;4909433;29;20039;-75
2023/08/30 16:14:07;;;;;;;1.90;1.23;;;26.30;75.40;;;;;;4925530;29;20036;-75
2023/08/30 16:16:33;;;;;;;2.78;1.13;;;25.70;76.00;;;;;;4926086;29;20314;-75
2023/08/30 16:19:00;;;;;;;2.10;1.10;;;25.10;78.40;;;;;;4925755;29;20324;-75
2023/08/30 16:21:31;;;;;;;3.63;1.33;;;24.20;80.30;;;;;;4926163;29;20035;-76
2023/08/30 16:23:57;;;;;;;3.38;1.30;;;23.80;82.20;;;;;;4925861;29;20088;-75
2023/08/30 16:26:24;;;;;;;2.67;1.20;;;23.30;84.60;;;;;;4893623;29;20044;-75
2023/08/30 16:28:53;;;;;;;2.85;1.20;;;22.80;83.00;;;;;;4925831;29;20035;-75
2023/08/30 16:31:24;;;;;;;2.05;1.30;;;22.50;83.70;;;;;;4908570;29;20036;-76
2023/08/30 16:33:53;;;;;;;2.20;1.00;;;22.20;84.20;;;;;;4913468;29;20388;-76
2023/08/30 16:36:19;;;;;;;2.40;1.13;;;22.00;82.60;;;;;;4906607;29;20373;-77
2023/08/30 16:38:44;;;;;;;2.95;1.30;;;22.00;84.20;;;;;;4908198;29;20060;-76
2023/08/30 16:41:13;;;;;;;2.78;1.20;;;22.40;84.50;;;;;;4910221;29;20103;-76
2023/08/30 16:43:43;;;;;;;2.83;1.20;;;23.20;85.00;;;;;;4893410;29;20341;-76
2023/08/30 16:46:18;;;;;;;2.47;1.13;;;23.40;84.70;;;;;;4909096;29;20052;-75
2023/08/30 16:48:44;;;;;;;2.17;1.05;;;23.30;84.10;;;;;;4910688;29;20048;-75
2023/08/30 16:51:15;;;;;;;3.00;1.15;;;23.60;84.00;;;;;;4909715;29;20113;-77
2023/08/30 16:53:40;;;;;;;2.70;1.45;;;24.90;84.50;;;;;;4895560;29;20041;-77
2023/08/30 16:56:32;;;;;;;3.22;1.15;;;26.30;79.40;;;;;;4910373;29;20033;-76
2023/08/30 16:58:58;;;;;;;2.40;1.10;;;27.30;76.70;;;;;;4910515;29;20058;-75
2023/08/30 17:01:23;;;;;;;2.53;1.20;;;27.50;73.90;;;;;;4909825;29;20338;-76
2023/08/30 17:03:49;;;;;;;2.47;1.23;;;27.10;75.10;;;;;;4910439;29;20188;-75
2023/08/30 17:06:15;;;;;;;1.70;1.05;;;26.50;75.40;;;;;;4909569;29;20077;-75
2023/08/30 17:08:42;;;;;;;2.60;1.40;;;25.40;78.00;;;;;;4909779;29;20067;-75
2023/08/30 17:11:08;;;;;;;3.40;1.20;;;24.30;80.90;;;;;;4909736;29;20028;-75
2023/08/30 17:13:35;;;;;;;3.08;1.35;;;23.50;83.90;;;;;;4910212;29;20036;-76
2023/08/30 17:16:02;;;;;;;3.28;1.55;;;22.60;86.30;;;;;;4909710;29;20076;-76
2023/08/30 17:18:29;;;;;;;2.10;1.23;;;22.10;88.40;;;;;;4910274;29;20100;-75
2023/08/30 17:20:58;;;;;;;4.40;1.55;;;21.70;90.10;;;;;;4893432;29;20036;-75
2023/08/30 17:23:26;;;;;;;2.10;1.30;;;21.30;90.60;;;;;;4892817;29;20089;-75
2023/08/30 17:25:52;;;;;;;;;;;20.90;91.50;;;;;;4910205;29;20352;-74
2023/08/30 17:28:18;;;;;;;3.65;1.75;;;20.70;91.80;;;;;;4909399;29;19903;-75
2023/08/30 17:30:47;;;;;;;3.97;1.67;;;20.40;92.30;;;;;;4909655;29;20099;-74
2023/08/30 17:33:13;;;;;;;4.00;1.65;;;20.20;92.60;;;;;;4899980;29;20092;-75
2023/08/30 17:35:38;;;;;;;3.95;1.98;;;20.00;93.30;;;;;;4927940;29;20028;-75
2023/08/30 17:38:04;;;;;;;2.55;1.60;;;19.80;93.60;;;;;;4928134;29;20136;-74
2023/08/30 17:40:34;;;;;;;4.40;1.50;;;19.70;93.90;;;;;;4928482;29;20210;-75
2023/08/30 17:43:05;;;;;;;5.07;2.08;;;19.60;94.30;;;;;;4911587;29;20056;-75
2023/08/30 17:48:16;;;;;;;4.50;2.17;;;19.40;94.80;;;;;;4919481;29;20111;-76
2023/08/30 17:50:52;;;;;;;4.82;2.13;;;19.20;95.40;;;;;;4919401;29;20060;-75
2023/08/30 17:53:18;;;;;;;3.40;2.10;;;19.10;95.50;;;;;;4922937;29;20087;-76
2023/08/30 17:55:52;;;;;;;3.08;1.92;;;18.90;95.70;;;;;;4907844;29;20043;-75
2023/08/30 17:58:46;;;;;;;3.75;2.20;;;18.90;96.30;;;;;;4892027;29;20028;-76
2023/08/30 18:01:12;;;;;;;4.68;1.83;;;18.70;96.40;;;;;;4924206;29;20056;-76
2023/08/30 18:03:40;;;;;;;3.85;2.15;;;18.60;96.40;;;;;;4928636;29;20035;-76
2023/08/30 18:06:12;;;;;;;3.45;2.00;;;18.40;96.60;;;;;;4927489;29;20388;-76
2023/08/30 18:08:39;;;;;;;3.03;2.00;;;18.40;97.00;;;;;;4928005;29;20043;-76
2023/08/30 18:11:24;;;;;;;3.42;2.03;;;18.30;96.50;;;;;;4927825;29;20040;-76
2023/08/30 18:13:51;;;;;;;3.13;2.15;;;18.20;96.50;;;;;;4928035;29;20103;-75
2023/08/30 18:16:20;;;;;;;4.38;1.90;;;18.10;96.90;;;;;;4894796;29;20148;-79
2023/08/30 18:18:46;;;;;;;4.70;2.47;;;18.00;96.80;;;;;;4910643;29;20036;-75
2023/08/30 18:21:13;;;;;;;2.78;1.90;;;17.90;97.00;;;;;;4910405;29;20286;-76
2023/08/30 18:23:42;;;;;;;3.05;1.88;;;17.80;97.50;;;;;;4927990;29;20032;-77
2023/08/30 18:26:08;;;;;;;3.45;1.95;;;17.80;97.30;;;;;;4927052;29;20099;-76
2023/08/30 18:28:36;;;;;;;3.50;2.13;;;17.70;97.50;;;;;;4895250;29;20262;-77
2023/08/30 18:31:03;;;;;;;2.83;1.70;;;17.70;97.30;;;;;;4927607;29;20031;-77
2023/08/30 18:33:29;;;;;;;4.18;1.73;;;17.60;97.30;;;;;;4927344;29;20086;-78
2023/08/30 18:36:00;;;;;;;3.15;2.08;;;17.60;97.30;;;;;;4927583;29;20310;-77
2023/08/30 18:38:47;;;;;;;3.08;2.13;;;17.50;97.40;;;;;;4926503;29;20047;-80
2023/08/30 18:41:16;;;;;;;3.92;2.58;;;17.50;97.50;;;;;;4926757;29;20115;-78
2023/08/30 18:44:07;;;;;;;4.85;2.53;;;17.40;97.80;;;;;;4927220;29;20032;-79
2023/08/30 18:50:41;;;;;;;4.32;2.33;;;17.30;98.10;;;;;;4850107;29;20087;-77
2023/08/30 18:53:07;;;;;;;3.47;2.13;;;17.30;98.10;;;;;;4832042;29;20042;-79
2023/08/30 18:55:33;;;;;;;4.43;2.45;;;17.30;98.10;;;;;;4832695;29;20245;-79
2023/08/30 19:04:52;;;;;;;4.95;2.15;;;17.20;98.40;;;;;;5310607;23;20062;-77
2023/08/30 19:07:22;;;;;;;4.25;2.42;;;17.20;98.00;;;;;;4945283;29;20032;-78
2023/08/30 19:09:50;;;;;;;2.92;2.20;;;17.20;97.80;;;;;;4946175;29;20036;-77
2023/08/30 19:12:16;;;;;;;4.40;2.50;;;17.20;98.00;;;;;;4945541;29;20090;-77
2023/08/30 19:14:45;;;;;;;6.82;3.33;;;17.20;98.20;;;;;;4945876;29;20301;-78
2023/08/30 19:17:10;;;;;;;;;;;17.10;98.20;;;;;;4945819;29;20258;-78
2023/08/30 19:19:39;;;;;;;5.20;2.90;;;17.20;98.30;;;;;;4945544;29;19989;-78
2023/08/30 19:22:05;;;;;;;5.85;3.08;;;17.10;98.30;;;;;;4928985;29;20028;-78
2023/08/30 19:24:36;;;;;;;4.60;2.42;;;17.20;98.30;;;;;;4945477;29;20061;-76
2023/08/30 19:27:12;;;;;;;5.00;3.05;;;17.20;98.50;;;;;;4945655;29;20043;-78
2023/08/30 19:29:38;;;;;;;4.50;2.90;;;17.10;98.80;;;;;;4945609;29;20047;-76